LVNO2: Poteau River At Loving, OK
Data processed at Thu 09Mar2023 05:02 GMT
All information presented herein is the property of the government of the United States of America and may be revised or deleted at any time without prior notice.
Dissemination of this information without the expressed written consent of the Public Affairs Office, Tulsa District U.S. Army Corps of Engineers is strictly prohibited.
These data are gathered electronically and, as presented, have not undergone any form of quality control. These data are not guaranteed to be valid or correct.
Go to home page.
Go to station list.
Upstream stations:
Downstream station:Previous Day
Next Day
Current Day
SHEF ID: LVNO2 Poteau River at Loving, OK
STATION TYPE:
Regulating: Stage = 20.00, Flow = 4523
STAGE RIV-FLOW
ft cfs
Ccp-Rev Ccp-Rev
(US/Central)
03/08 00:00 12.82 1027
03/08 01:00 12.79 1016
03/08 02:00 12.77 1008
03/08 03:00 12.75 1000
03/08 04:00 12.73 993
03/08 05:00 12.71 985
03/08 06:00 12.73 993
03/08 07:00 12.72 989
03/08 08:00 12.72 989
03/08 09:00 12.71 985
03/08 10:00 12.71 985
03/08 11:00 12.72 989
03/08 12:00 12.72 989
03/08 13:00 12.72 989
03/08 14:00 12.72 989
03/08 15:00 12.70 981
03/08 16:00 12.69 977
03/08 17:00 12.66 965
03/08 18:00 12.65 961
03/08 19:00 12.65 961
03/08 20:00 12.62 949
03/08 21:00 12.62 949
03/08 22:00 12.62 949
03/08 23:00 ---- ----